Time;durP1;ratioP1;P1;durP2;ratioP2;P2;SDS_P1;SDS_P2;PMS_P1;PMS_P2;Temp;Humidity;BMP_temperature;BMP_pressure;BME280_temperature;BME280_humidity;BME280_pressure;Samples;Min_cycle;Max_cycle;Signal;HPM_P1;HPM_P2
2023/10/03 00:00:44;;;;;;;7.43;3.60;;;;;;;;;;2055618;28;20085;-92
2023/10/03 00:01:45;;;;;;;7.38;3.97;;;;;;;;;;2055285;28;20071;-90
2023/10/03 00:02:45;;;;;;;6.57;3.30;;;;;;;;;;2047885;28;20471;-90
2023/10/03 00:03:46;;;;;;;8.32;3.35;;;;;;;;;;2047516;28;20031;-90
2023/10/03 00:04:48;;;;;;;7.28;3.40;;;;;;;;;;2047414;28;20083;-91
2023/10/03 00:05:51;;;;;;;7.90;3.03;;;;;;;;;;2047776;28;20118;-91
2023/10/03 00:06:51;;;;;;;6.13;3.28;;;;;;;;;;2055954;28;20128;-92
2023/10/03 00:07:52;;;;;;;8.68;3.17;;;;;;;;;;2064317;28;20114;-92
2023/10/03 00:08:54;;;;;;;7.20;3.50;;;;;;;;;;2064291;28;20409;-91
2023/10/03 00:09:54;;;;;;;5.93;3.47;;;;;;;;;;2055503;28;20130;-91
2023/10/03 00:10:55;;;;;;;8.57;3.80;;;;;;;;;;2055501;28;20086;-90
2023/10/03 00:11:56;;;;;;;6.63;3.80;;;;;;;;;;2047536;28;20035;-91
2023/10/03 00:12:57;;;;;;;9.90;3.42;;;;;;;;;;2055773;28;20046;-92
2023/10/03 00:13:57;;;;;;;7.47;3.42;;;;;;;;;;2055437;28;20030;-92
2023/10/03 00:14:57;;;;;;;5.65;3.47;;;;;;;;;;2047468;28;20494;-91
2023/10/03 00:15:58;;;;;;;6.68;3.58;;;;;;;;;;2047803;28;20525;-91
2023/10/03 00:16:58;;;;;;;6.72;3.70;;;;;;;;;;2049986;28;20069;-89
2023/10/03 00:17:58;;;;;;;9.93;3.22;;;;;;;;;;2054006;28;20057;-92
2023/10/03 00:18:59;;;;;;;5.90;3.85;;;;;;;;;;2061781;28;20125;-91
2023/10/03 00:19:59;;;;;;;8.05;3.92;;;;;;;;;;2068750;28;20061;-91
2023/10/03 00:21:00;;;;;;;7.28;3.72;;;;;;;;;;2058665;28;20078;-92
2023/10/03 00:22:00;;;;;;;6.88;3.58;;;;;;;;;;2055988;28;20066;-92
2023/10/03 00:23:01;;;;;;;6.47;3.55;;;;;;;;;;2064556;28;20042;-90
2023/10/03 00:24:01;;;;;;;6.18;3.67;;;;;;;;;;2056083;28;20641;-91
2023/10/03 00:25:02;;;;;;;9.38;3.85;;;;;;;;;;2056090;28;20151;-92
2023/10/03 00:26:03;;;;;;;5.93;3.22;;;;;;;;;;2059714;28;20043;-90
2023/10/03 00:27:05;;;;;;;6.90;3.47;;;;;;;;;;2056123;28;20581;-91
2023/10/03 00:28:06;;;;;;;10.23;3.97;;;;;;;;;;2056603;28;20051;-91
2023/10/03 00:29:13;;;;;;;7.88;3.72;;;;;;;;;;2056696;28;20049;-91
2023/10/03 00:30:14;;;;;;;6.15;3.30;;;;;;;;;;2055868;28;20138;-92
2023/10/03 00:31:15;;;;;;;7.57;3.40;;;;;;;;;;2047608;28;20082;-92
2023/10/03 00:32:15;;;;;;;8.15;3.13;;;;;;;;;;2047448;28;20039;-92
2023/10/03 00:33:17;;;;;;;8.30;3.75;;;;;;;;;;2055411;28;20026;-92
2023/10/03 00:34:17;;;;;;;6.45;3.78;;;;;;;;;;2047555;28;20035;-92
2023/10/03 00:35:22;;;;;;;9.60;3.58;;;;;;;;;;2057848;28;20493;-92
2023/10/03 00:36:24;;;;;;;6.75;3.80;;;;;;;;;;2070312;28;20109;-92
2023/10/03 00:37:25;;;;;;;9.20;3.60;;;;;;;;;;2062604;28;20046;-91
2023/10/03 00:38:25;;;;;;;6.97;3.67;;;;;;;;;;2053129;28;20058;-91
2023/10/03 00:39:27;;;;;;;6.63;3.67;;;;;;;;;;2047473;28;20058;-91
2023/10/03 00:40:28;;;;;;;7.43;3.70;;;;;;;;;;1705985;28;10001633;-91
2023/10/03 00:41:29;;;;;;;6.20;3.38;;;;;;;;;;2047344;28;20175;-91
2023/10/03 00:42:31;;;;;;;7.85;3.83;;;;;;;;;;2055835;28;20107;-92
2023/10/03 00:43:31;;;;;;;10.02;3.60;;;;;;;;;;2055387;28;20023;-91
2023/10/03 00:44:32;;;;;;;7.35;3.30;;;;;;;;;;2047601;28;20033;-93
2023/10/03 00:45:32;;;;;;;6.55;3.67;;;;;;;;;;2047981;28;20042;-92
2023/10/03 00:46:33;;;;;;;9.07;3.75;;;;;;;;;;2047758;28;20042;-92
2023/10/03 00:47:33;;;;;;;6.35;3.40;;;;;;;;;;2047489;28;20050;-91
2023/10/03 00:48:34;;;;;;;5.82;3.20;;;;;;;;;;2047358;28;20066;-90
2023/10/03 00:49:35;;;;;;;7.53;3.13;;;;;;;;;;2055620;28;20035;-90
2023/10/03 00:50:37;;;;;;;6.25;3.40;;;;;;;;;;2056028;28;20047;-90
2023/10/03 00:51:40;;;;;;;9.75;3.30;;;;;;;;;;2056777;28;20035;-90
2023/10/03 00:52:42;;;;;;;8.85;3.28;;;;;;;;;;2049171;28;20043;-91
2023/10/03 00:53:43;;;;;;;9.15;3.58;;;;;;;;;;2049046;28;20518;-91
2023/10/03 00:54:44;;;;;;;9.10;3.13;;;;;;;;;;2048813;28;20126;-91
2023/10/03 00:55:44;;;;;;;7.28;3.47;;;;;;;;;;2056692;28;20046;-91
2023/10/03 00:56:45;;;;;;;8.05;3.47;;;;;;;;;;2056727;28;20158;-92
2023/10/03 00:57:45;;;;;;;6.53;3.40;;;;;;;;;;2056988;28;20042;-91
2023/10/03 00:58:45;;;;;;;5.43;3.58;;;;;;;;;;2048702;28;20517;-92
2023/10/03 00:59:48;;;;;;;6.50;3.15;;;;;;;;;;2056741;28;20109;-92
2023/10/03 01:00:57;;;;;;;5.57;3.05;;;;;;;;;;2056739;28;20445;-92
2023/10/03 01:02:03;;;;;;;6.03;3.30;;;;;;;;;;2049816;28;20075;-92
2023/10/03 01:03:06;;;;;;;9.23;3.72;;;;;;;;;;2049644;28;20062;-90
2023/10/03 01:04:16;;;;;;;6.97;3.35;;;;;;;;;;2056992;28;20101;-91
2023/10/03 01:05:16;;;;;;;7.65;3.88;;;;;;;;;;2056687;28;20547;-91
2023/10/03 01:06:18;;;;;;;6.78;3.58;;;;;;;;;;2048601;28;20079;-92
2023/10/03 01:07:18;;;;;;;8.80;3.72;;;;;;;;;;2048917;28;20293;-92
2023/10/03 01:08:19;;;;;;;5.68;3.70;;;;;;;;;;2056614;28;20034;-92
2023/10/03 01:09:27;;;;;;;7.93;3.90;;;;;;;;;;2056697;28;20049;-92
2023/10/03 01:10:28;;;;;;;6.28;3.70;;;;;;;;;;2050031;28;20437;-92
2023/10/03 01:11:29;;;;;;;7.97;3.30;;;;;;;;;;2048755;28;20158;-92
2023/10/03 01:12:30;;;;;;;8.80;3.92;;;;;;;;;;2056867;28;20510;-92
2023/10/03 01:13:30;;;;;;;6.75;3.70;;;;;;;;;;2048790;28;20062;-92
2023/10/03 01:14:38;;;;;;;5.38;3.30;;;;;;;;;;2048843;28;20467;-92
2023/10/03 01:15:39;;;;;;;7.60;3.17;;;;;;;;;;2049430;28;20043;-92
2023/10/03 01:16:39;;;;;;;6.50;3.75;;;;;;;;;;2049164;28;20039;-92
2023/10/03 01:17:41;;;;;;;6.35;3.72;;;;;;;;;;2057421;28;20598;-92
2023/10/03 01:18:42;;;;;;;12.25;5.38;;;;;;;;;;2056647;28;20035;-91
2023/10/03 01:19:43;;;;;;;6.07;3.72;;;;;;;;;;2057462;28;20043;-92
2023/10/03 01:20:48;;;;;;;7.32;4.00;;;;;;;;;;2056716;28;20129;-93
2023/10/03 01:21:50;;;;;;;7.28;3.47;;;;;;;;;;2049112;28;20074;-92
2023/10/03 01:22:54;;;;;;;6.53;3.40;;;;;;;;;;2056676;28;20518;-92
2023/10/03 01:23:54;;;;;;;5.85;3.58;;;;;;;;;;2056534;28;20070;-92
2023/10/03 01:24:55;;;;;;;7.22;3.33;;;;;;;;;;2048955;28;20046;-92
2023/10/03 01:25:55;;;;;;;5.65;3.20;;;;;;;;;;2048861;29;20035;-92
2023/10/03 01:26:56;;;;;;;11.70;3.80;;;;;;;;;;2056644;28;20062;-92
2023/10/03 01:27:56;;;;;;;8.88;3.50;;;;;;;;;;2056687;28;20039;-91
2023/10/03 01:28:58;;;;;;;6.07;3.30;;;;;;;;;;2056344;28;20039;-91
2023/10/03 01:29:58;;;;;;;7.80;3.65;;;;;;;;;;2056790;28;20043;-90
2023/10/03 01:30:58;;;;;;;6.50;3.30;;;;;;;;;;2056579;28;20047;-91
2023/10/03 01:31:59;;;;;;;5.60;2.85;;;;;;;;;;2056494;28;20047;-92
2023/10/03 01:33:02;;;;;;;7.22;3.78;;;;;;;;;;2056700;28;20125;-92
2023/10/03 01:34:05;;;;;;;8.32;3.80;;;;;;;;;;2065390;28;20045;-91
2023/10/03 01:35:08;;;;;;;7.20;4.03;;;;;;;;;;2056779;28;20318;-92
2023/10/03 01:36:10;;;;;;;7.97;3.75;;;;;;;;;;1698550;28;10250894;-92
2023/10/03 01:37:10;;;;;;;7.60;3.15;;;;;;;;;;2048691;28;20508;-92
2023/10/03 01:38:14;;;;;;;5.30;3.00;;;;;;;;;;2048729;28;20043;-92
2023/10/03 01:39:15;;;;;;;7.75;3.35;;;;;;;;;;2048993;28;20043;-93
2023/10/03 01:40:16;;;;;;;7.38;3.85;;;;;;;;;;2048578;28;20109;-91
2023/10/03 01:41:17;;;;;;;8.48;3.70;;;;;;;;;;2056504;28;20185;-91
2023/10/03 01:42:18;;;;;;;7.53;3.38;;;;;;;;;;2065084;28;20023;-91
2023/10/03 01:43:19;;;;;;;10.05;4.15;;;;;;;;;;2056626;28;20113;-91
2023/10/03 01:44:19;;;;;;;8.70;3.90;;;;;;;;;;2049903;28;20145;-91
2023/10/03 01:45:21;;;;;;;6.43;3.95;;;;;;;;;;2057324;28;20111;-91
2023/10/03 01:46:22;;;;;;;8.23;3.67;;;;;;;;;;2048964;28;20031;-92
2023/10/03 01:47:22;;;;;;;9.00;3.90;;;;;;;;;;2056366;28;20037;-92
2023/10/03 01:48:23;;;;;;;7.07;3.85;;;;;;;;;;2056234;28;20023;-92
2023/10/03 01:49:24;;;;;;;7.55;3.22;;;;;;;;;;2048244;28;20511;-91
2023/10/03 01:50:28;;;;;;;8.55;3.42;;;;;;;;;;2056486;28;20031;-91
2023/10/03 01:51:29;;;;;;;9.82;3.95;;;;;;;;;;2065246;28;20536;-91
2023/10/03 01:52:29;;;;;;;7.00;3.25;;;;;;;;;;2056481;28;20022;-91
2023/10/03 01:53:32;;;;;;;7.60;3.53;;;;;;;;;;2056416;28;20054;-91
2023/10/03 01:54:34;;;;;;;5.40;3.20;;;;;;;;;;2056363;28;20127;-91
2023/10/03 01:55:35;;;;;;;9.23;4.18;;;;;;;;;;2056467;28;20035;-92
2023/10/03 01:56:35;;;;;;;6.85;3.33;;;;;;;;;;2048491;28;20074;-91
2023/10/03 01:57:36;;;;;;;7.47;3.58;;;;;;;;;;2056446;28;20146;-91
2023/10/03 01:58:37;;;;;;;6.65;3.33;;;;;;;;;;2048400;28;20039;-91
2023/10/03 01:59:37;;;;;;;6.43;3.45;;;;;;;;;;2056365;28;20053;-91
2023/10/03 02:00:37;;;;;;;11.18;3.90;;;;;;;;;;2056352;28;20053;-91
2023/10/03 02:01:38;;;;;;;8.93;3.53;;;;;;;;;;2056052;28;20608;-91
2023/10/03 02:02:38;;;;;;;7.57;3.42;;;;;;;;;;2048257;28;20045;-92
2023/10/03 02:03:39;;;;;;;9.18;3.72;;;;;;;;;;2048343;28;20106;-93
2023/10/03 02:04:40;;;;;;;5.78;3.60;;;;;;;;;;2056539;28;20109;-92
2023/10/03 02:05:42;;;;;;;8.82;4.30;;;;;;;;;;2056207;28;20034;-91
2023/10/03 02:06:42;;;;;;;9.15;3.47;;;;;;;;;;2048514;28;20471;-91
2023/10/03 02:07:43;;;;;;;5.85;3.40;;;;;;;;;;2048522;28;20039;-92
2023/10/03 02:08:43;;;;;;;7.00;3.58;;;;;;;;;;2048140;29;20099;-92
2023/10/03 02:09:44;;;;;;;11.50;3.88;;;;;;;;;;2048237;28;20502;-93
2023/10/03 02:10:46;;;;;;;6.13;4.13;;;;;;;;;;2048121;28;20043;-90
2023/10/03 02:11:47;;;;;;;8.05;3.13;;;;;;;;;;2048308;28;20117;-91
2023/10/03 02:12:50;;;;;;;7.45;3.55;;;;;;;;;;2048165;28;20042;-92
2023/10/03 02:13:51;;;;;;;6.30;3.13;;;;;;;;;;2048708;28;20050;-93
2023/10/03 02:14:51;;;;;;;6.50;3.78;;;;;;;;;;2048307;28;20439;-92
2023/10/03 02:15:54;;;;;;;9.70;4.30;;;;;;;;;;2048618;28;20130;-92
2023/10/03 02:16:55;;;;;;;7.32;3.45;;;;;;;;;;2048589;28;20051;-92
2023/10/03 02:17:59;;;;;;;7.75;3.35;;;;;;;;;;2056364;28;20518;-91
2023/10/03 02:18:59;;;;;;;7.10;3.33;;;;;;;;;;2056526;28;20043;-92
2023/10/03 02:19:59;;;;;;;6.30;3.40;;;;;;;;;;2048149;28;20126;-92
2023/10/03 02:21:01;;;;;;;8.90;4.35;;;;;;;;;;2047981;28;20533;-92
2023/10/03 02:22:02;;;;;;;4.20;3.08;;;;;;;;;;2048210;28;20417;-93
2023/10/03 02:23:05;;;;;;;7.70;3.85;;;;;;;;;;2056248;28;20221;-92
2023/10/03 02:24:06;;;;;;;6.57;2.85;;;;;;;;;;2056072;28;20050;-91
2023/10/03 02:25:09;;;;;;;6.50;3.50;;;;;;;;;;2056509;28;20094;-91
2023/10/03 02:26:10;;;;;;;5.68;3.35;;;;;;;;;;2056166;28;20039;-91
2023/10/03 02:27:11;;;;;;;6.43;2.85;;;;;;;;;;2056480;28;20038;-92
2023/10/03 02:28:14;;;;;;;9.27;4.00;;;;;;;;;;2056274;28;20509;-91
2023/10/03 02:29:15;;;;;;;5.85;3.50;;;;;;;;;;2048272;28;20050;-91
2023/10/03 02:30:19;;;;;;;8.13;3.97;;;;;;;;;;2048158;28;20043;-92
2023/10/03 02:31:20;;;;;;;6.68;3.53;;;;;;;;;;2056079;28;20031;-92
2023/10/03 02:32:20;;;;;;;8.25;3.90;;;;;;;;;;2048216;28;20047;-92
2023/10/03 02:33:22;;;;;;;8.93;3.47;;;;;;;;;;2048670;28;20031;-92
2023/10/03 02:34:23;;;;;;;8.13;3.38;;;;;;;;;;2057198;28;20077;-92
2023/10/03 02:35:25;;;;;;;7.35;3.47;;;;;;;;;;2056197;28;20081;-92
2023/10/03 02:36:26;;;;;;;8.60;3.80;;;;;;;;;;2048356;28;20034;-92
2023/10/03 02:37:26;;;;;;;7.07;3.28;;;;;;;;;;2047909;28;20031;-92
2023/10/03 02:38:29;;;;;;;5.90;3.72;;;;;;;;;;2056018;28;20067;-92
2023/10/03 02:39:35;;;;;;;6.80;3.65;;;;;;;;;;2048371;28;20035;-91
2023/10/03 02:40:36;;;;;;;8.73;3.60;;;;;;;;;;2048706;28;20043;-92
2023/10/03 02:41:36;;;;;;;9.48;3.97;;;;;;;;;;2047888;28;20462;-90
2023/10/03 02:42:39;;;;;;;7.47;3.35;;;;;;;;;;2056149;28;20137;-91
2023/10/03 02:43:43;;;;;;;8.27;3.33;;;;;;;;;;2048437;28;20130;-90
2023/10/03 02:44:44;;;;;;;8.80;3.65;;;;;;;;;;2048180;28;20059;-92
2023/10/03 02:45:44;;;;;;;7.05;3.60;;;;;;;;;;2055807;28;20446;-91
2023/10/03 02:46:45;;;;;;;6.15;3.65;;;;;;;;;;2055864;28;20042;-90
2023/10/03 02:47:46;;;;;;;10.38;4.00;;;;;;;;;;2055975;28;20038;-93
2023/10/03 02:48:48;;;;;;;7.68;3.72;;;;;;;;;;2048035;28;20091;-92
2023/10/03 02:49:51;;;;;;;7.93;3.65;;;;;;;;;;2048215;28;20039;-93
2023/10/03 02:50:52;;;;;;;7.07;3.53;;;;;;;;;;2048183;28;20054;-92
2023/10/03 02:51:53;;;;;;;7.88;4.07;;;;;;;;;;2056104;28;20049;-93
2023/10/03 02:52:55;;;;;;;7.70;3.15;;;;;;;;;;2055983;28;20054;-92
2023/10/03 02:53:55;;;;;;;9.93;3.58;;;;;;;;;;2048358;28;20050;-92
2023/10/03 02:54:56;;;;;;;9.07;3.67;;;;;;;;;;2047977;28;20047;-92
2023/10/03 02:55:58;;;;;;;6.60;3.45;;;;;;;;;;2048113;28;20039;-92
2023/10/03 02:56:59;;;;;;;7.10;3.65;;;;;;;;;;2048500;28;20109;-89
2023/10/03 02:57:59;;;;;;;6.95;3.95;;;;;;;;;;2056239;28;20489;-92
2023/10/03 02:59:00;;;;;;;8.55;4.10;;;;;;;;;;2055875;28;20441;-92
2023/10/03 03:00:05;;;;;;;9.48;4.07;;;;;;;;;;2048046;28;20039;-91
2023/10/03 03:01:06;;;;;;;7.43;3.85;;;;;;;;;;2055822;28;20038;-92
2023/10/03 03:02:06;;;;;;;11.00;3.65;;;;;;;;;;2047908;28;20388;-90
2023/10/03 03:03:07;;;;;;;8.45;3.88;;;;;;;;;;2055846;28;20030;-92
2023/10/03 03:04:12;;;;;;;8.10;4.15;;;;;;;;;;2055693;28;20046;-91
2023/10/03 03:05:15;;;;;;;9.75;4.28;;;;;;;;;;2055811;28;20430;-91
2023/10/03 03:06:16;;;;;;;8.80;3.75;;;;;;;;;;2056233;28;20050;-92
2023/10/03 03:07:18;;;;;;;6.55;3.90;;;;;;;;;;2055568;28;20134;-92
2023/10/03 03:09:23;;;;;;;6.07;3.35;;;;;;;;;;2055653;28;20493;-92
2023/10/03 03:10:24;;;;;;;6.15;3.30;;;;;;;;;;2066653;28;20109;-91
2023/10/03 03:11:28;;;;;;;5.75;3.50;;;;;;;;;;2055771;28;20033;-92
2023/10/03 03:12:28;;;;;;;10.48;4.20;;;;;;;;;;2056098;28;20370;-92
2023/10/03 03:13:34;;;;;;;8.57;3.83;;;;;;;;;;2055123;28;20027;-91
2023/10/03 03:14:36;;;;;;;8.85;3.75;;;;;;;;;;2055631;28;20534;-91
2023/10/03 03:15:37;;;;;;;6.57;3.30;;;;;;;;;;2055634;28;20066;-91
2023/10/03 03:16:40;;;;;;;7.00;3.40;;;;;;;;;;2055816;28;20122;-92
2023/10/03 03:17:40;;;;;;;6.95;3.97;;;;;;;;;;2055891;28;20054;-92
2023/10/03 03:18:41;;;;;;;6.60;3.28;;;;;;;;;;2047747;28;20050;-92
2023/10/03 03:19:44;;;;;;;8.70;4.25;;;;;;;;;;2055727;28;20035;-92
2023/10/03 03:20:50;;;;;;;9.30;4.25;;;;;;;;;;2064423;28;20121;-92
2023/10/03 03:21:50;;;;;;;10.70;3.88;;;;;;;;;;2055736;28;20043;-92
2023/10/03 03:22:51;;;;;;;6.78;3.80;;;;;;;;;;2055781;28;20043;-92
2023/10/03 03:24:00;;;;;;;7.93;4.25;;;;;;;;;;2047872;28;20060;-91
2023/10/03 03:25:00;;;;;;;7.43;3.83;;;;;;;;;;2055676;28;20042;-92
2023/10/03 03:26:20;;;;;;;6.95;4.20;;;;;;;;;;2047848;28;20058;-93
2023/10/03 03:27:26;;;;;;;7.47;3.80;;;;;;;;;;2050121;28;20035;-92
2023/10/03 03:28:26;;;;;;;7.97;3.45;;;;;;;;;;2048309;28;20035;-92
2023/10/03 03:29:35;;;;;;;8.55;3.95;;;;;;;;;;2047822;28;20033;-92
2023/10/03 03:30:36;;;;;;;6.65;3.60;;;;;;;;;;2048806;28;20066;-92
2023/10/03 03:31:37;;;;;;;10.68;4.13;;;;;;;;;;2049079;28;20060;-91
2023/10/03 03:32:38;;;;;;;9.23;3.75;;;;;;;;;;2049049;28;20418;-91
2023/10/03 03:33:39;;;;;;;5.82;3.35;;;;;;;;;;2056529;28;20109;-92
2023/10/03 03:34:40;;;;;;;7.00;3.90;;;;;;;;;;2047929;28;20031;-92
2023/10/03 03:35:41;;;;;;;8.20;4.00;;;;;;;;;;2047555;28;20468;-91
2023/10/03 03:36:41;;;;;;;8.07;4.22;;;;;;;;;;2047632;28;20043;-91
2023/10/03 03:37:41;;;;;;;8.95;3.60;;;;;;;;;;2047721;28;20549;-92
2023/10/03 03:38:42;;;;;;;6.60;4.00;;;;;;;;;;2047586;28;20043;-91
2023/10/03 03:39:53;;;;;;;6.72;4.10;;;;;;;;;;2047481;28;20129;-92
2023/10/03 03:40:59;;;;;;;8.10;3.92;;;;;;;;;;2056877;28;20043;-91
2023/10/03 03:41:59;;;;;;;7.78;3.60;;;;;;;;;;2055502;28;20137;-91
2023/10/03 03:43:03;;;;;;;8.35;4.00;;;;;;;;;;2047686;28;20466;-91
2023/10/03 03:44:11;;;;;;;7.65;3.90;;;;;;;;;;2047935;28;20058;-91
2023/10/03 03:45:11;;;;;;;6.82;3.97;;;;;;;;;;2049169;28;20132;-91
2023/10/03 03:46:12;;;;;;;6.35;3.70;;;;;;;;;;2055707;28;20050;-91
2023/10/03 03:47:13;;;;;;;10.45;3.35;;;;;;;;;;2064332;28;20050;-91
2023/10/03 03:48:14;;;;;;;7.53;3.50;;;;;;;;;;2055611;28;20038;-91
2023/10/03 03:49:18;;;;;;;8.43;3.88;;;;;;;;;;2051914;28;20051;-91
2023/10/03 03:50:20;;;;;;;7.55;3.85;;;;;;;;;;2053450;28;20454;-91
2023/10/03 03:51:21;;;;;;;6.50;3.63;;;;;;;;;;2053416;28;20106;-90
2023/10/03 03:52:21;;;;;;;7.57;4.05;;;;;;;;;;2061259;28;20030;-89
2023/10/03 03:53:21;;;;;;;6.50;3.63;;;;;;;;;;2067893;28;20113;-91
2023/10/03 03:54:22;;;;;;;8.98;3.85;;;;;;;;;;2055745;28;20145;-92
2023/10/03 03:55:23;;;;;;;7.72;3.60;;;;;;;;;;2047835;28;20039;-91
2023/10/03 03:56:23;;;;;;;7.72;3.30;;;;;;;;;;2055619;28;20033;-92
2023/10/03 03:57:24;;;;;;;8.77;3.70;;;;;;;;;;2047692;28;20031;-92
2023/10/03 03:58:24;;;;;;;7.70;3.40;;;;;;;;;;2056148;28;20075;-90
2023/10/03 03:59:24;;;;;;;6.82;3.50;;;;;;;;;;2055565;28;20125;-90
2023/10/03 04:00:29;;;;;;;10.48;3.90;;;;;;;;;;2055559;28;20065;-92
2023/10/03 04:01:33;;;;;;;6.28;3.97;;;;;;;;;;2055207;28;20118;-92
2023/10/03 04:02:33;;;;;;;10.35;3.60;;;;;;;;;;2048162;28;20050;-92
2023/10/03 04:03:35;;;;;;;8.73;3.70;;;;;;;;;;2055536;28;20038;-91
2023/10/03 04:04:35;;;;;;;6.15;3.35;;;;;;;;;;2064141;28;20556;-92
2023/10/03 04:05:36;;;;;;;5.75;3.75;;;;;;;;;;2055954;28;20173;-91
2023/10/03 04:06:37;;;;;;;9.13;4.40;;;;;;;;;;2054402;28;20039;-91
2023/10/03 04:07:38;;;;;;;6.28;3.40;;;;;;;;;;2063311;28;20061;-91
2023/10/03 04:08:39;;;;;;;6.22;3.50;;;;;;;;;;2062078;28;20607;-91
2023/10/03 04:09:39;;;;;;;9.35;3.83;;;;;;;;;;2062123;28;20090;-92
2023/10/03 04:10:43;;;;;;;8.68;4.05;;;;;;;;;;2049684;28;20046;-92
2023/10/03 04:11:43;;;;;;;8.02;3.85;;;;;;;;;;2056528;28;20046;-90
2023/10/03 04:12:44;;;;;;;7.53;3.95;;;;;;;;;;2056277;28;20050;-91
2023/10/03 04:13:55;;;;;;;8.95;4.22;;;;;;;;;;2047588;28;20050;-91
2023/10/03 04:14:55;;;;;;;6.43;3.83;;;;;;;;;;2049436;28;20043;-92
2023/10/03 04:15:58;;;;;;;;;;;;;;;;;;2047990;28;20415;-91
2023/10/03 04:16:58;;;;;;;6.85;3.42;;;;;;;;;;2047925;28;20436;-91
2023/10/03 04:17:59;;;;;;;12.75;4.82;;;;;;;;;;2055922;28;20046;-91
2023/10/03 04:18:59;;;;;;;6.30;4.13;;;;;;;;;;2055777;28;20450;-91
2023/10/03 04:20:00;;;;;;;12.43;4.38;;;;;;;;;;2055654;28;20049;-91
2023/10/03 04:21:00;;;;;;;11.75;4.80;;;;;;;;;;2047736;28;20494;-92
2023/10/03 04:22:01;;;;;;;10.60;4.18;;;;;;;;;;2047792;28;20172;-93
2023/10/03 04:23:06;;;;;;;8.75;4.25;;;;;;;;;;2047267;28;20425;-91
2023/10/03 04:24:09;;;;;;;7.53;4.38;;;;;;;;;;2056513;28;20469;-92
2023/10/03 04:25:13;;;;;;;12.57;5.05;;;;;;;;;;2055755;28;20498;-91
2023/10/03 04:26:13;;;;;;;16.40;5.63;;;;;;;;;;2057561;28;20062;-92
2023/10/03 04:27:13;;;;;;;8.70;3.72;;;;;;;;;;2057101;28;20557;-91
2023/10/03 04:28:15;;;;;;;6.30;3.92;;;;;;;;;;2049227;28;20043;-92
2023/10/03 04:29:16;;;;;;;8.48;4.60;;;;;;;;;;2057506;28;20165;-91
2023/10/03 04:30:19;;;;;;;9.52;4.55;;;;;;;;;;2065803;28;20461;-91
2023/10/03 04:31:20;;;;;;;11.88;5.07;;;;;;;;;;2065708;28;20026;-92
2023/10/03 04:32:20;;;;;;;10.38;4.35;;;;;;;;;;2057061;28;20117;-92
2023/10/03 04:33:21;;;;;;;14.85;4.63;;;;;;;;;;2057191;28;20027;-91
2023/10/03 04:34:22;;;;;;;9.27;4.88;;;;;;;;;;2056825;28;20453;-91
2023/10/03 04:35:24;;;;;;;9.65;5.03;;;;;;;;;;2048880;28;20123;-91
2023/10/03 04:36:25;;;;;;;12.27;5.45;;;;;;;;;;2049105;28;20372;-91
2023/10/03 04:37:26;;;;;;;13.20;4.82;;;;;;;;;;2049036;28;20499;-91
2023/10/03 04:38:26;;;;;;;7.53;4.20;;;;;;;;;;2048772;28;20023;-91
2023/10/03 04:39:26;;;;;;;12.07;4.60;;;;;;;;;;2048949;28;20427;-93
2023/10/03 04:40:37;;;;;;;7.68;4.35;;;;;;;;;;2057200;28;20169;-92
2023/10/03 04:41:43;;;;;;;13.65;5.15;;;;;;;;;;2066072;28;20038;-92
2023/10/03 04:42:45;;;;;;;10.10;4.53;;;;;;;;;;2056996;28;20201;-93
2023/10/03 04:43:45;;;;;;;9.70;5.75;;;;;;;;;;2056920;28;20049;-92
2023/10/03 04:44:46;;;;;;;7.55;3.83;;;;;;;;;;2057090;28;20039;-92
2023/10/03 04:45:46;;;;;;;11.27;4.88;;;;;;;;;;2049017;28;20577;-91
2023/10/03 04:46:48;;;;;;;11.45;5.10;;;;;;;;;;2057684;28;20172;-92
2023/10/03 04:47:49;;;;;;;12.10;5.28;;;;;;;;;;2057179;28;20117;-90
2023/10/03 04:48:50;;;;;;;8.88;4.55;;;;;;;;;;2049041;28;20133;-91
2023/10/03 04:49:51;;;;;;;11.77;4.63;;;;;;;;;;2049114;28;20051;-91
2023/10/03 04:51:15;;;;;;;10.30;4.93;;;;;;;;;;2048865;28;20441;-91
2023/10/03 04:52:15;;;;;;;11.95;4.28;;;;;;;;;;2051928;28;20477;-91
2023/10/03 04:53:16;;;;;;;12.18;5.60;;;;;;;;;;2051483;28;20141;-91
2023/10/03 04:54:16;;;;;;;11.00;4.38;;;;;;;;;;2057018;28;20043;-91
2023/10/03 04:55:18;;;;;;;12.00;5.32;;;;;;;;;;2065615;28;20026;-91
2023/10/03 04:56:19;;;;;;;11.32;4.25;;;;;;;;;;2056996;28;20035;-91
2023/10/03 04:57:19;;;;;;;9.38;5.03;;;;;;;;;;2048616;28;20039;-91
2023/10/03 04:58:29;;;;;;;12.63;4.88;;;;;;;;;;2049011;28;20027;-91
2023/10/03 04:59:33;;;;;;;10.73;4.82;;;;;;;;;;2050426;28;20114;-92
2023/10/03 05:00:33;;;;;;;7.82;4.53;;;;;;;;;;2057550;28;20045;-91
2023/10/03 05:01:34;;;;;;;9.55;5.03;;;;;;;;;;2048777;29;20097;-91
2023/10/03 05:02:34;;;;;;;8.18;4.65;;;;;;;;;;2040782;29;20031;-91
2023/10/03 05:03:37;;;;;;;9.32;5.00;;;;;;;;;;2040914;29;20083;-91
2023/10/03 05:04:37;;;;;;;9.65;4.43;;;;;;;;;;2041308;29;20052;-91
2023/10/03 05:05:37;;;;;;;9.25;4.57;;;;;;;;;;2048949;29;20031;-91
2023/10/03 05:06:38;;;;;;;8.85;4.60;;;;;;;;;;2048957;29;20038;-91
2023/10/03 05:07:38;;;;;;;9.60;4.82;;;;;;;;;;2049029;29;20140;-91
2023/10/03 05:08:39;;;;;;;10.40;4.70;;;;;;;;;;2040964;29;20183;-91
2023/10/03 05:09:39;;;;;;;12.45;4.72;;;;;;;;;;2048935;29;20051;-91
2023/10/03 05:10:39;;;;;;;10.77;5.82;;;;;;;;;;2048804;29;20039;-91
2023/10/03 05:11:42;;;;;;;13.48;6.07;;;;;;;;;;2041042;29;20476;-91
2023/10/03 05:12:45;;;;;;;9.45;5.15;;;;;;;;;;2049237;28;20118;-90
2023/10/03 05:13:45;;;;;;;12.15;5.43;;;;;;;;;;2049077;29;20106;-91
2023/10/03 05:14:48;;;;;;;12.23;4.72;;;;;;;;;;2048914;29;20043;-91
2023/10/03 05:15:48;;;;;;;9.02;4.70;;;;;;;;;;2048717;29;20043;-92
2023/10/03 05:16:52;;;;;;;;;;;;;;;;;;1706912;29;10001554;-91
2023/10/03 05:17:54;;;;;;;;;;;;;;;;;;2049247;29;19915;-91
2023/10/03 05:18:55;;;;;;;;;;;;;;;;;;2049856;29;20332;-90
2023/10/03 05:19:58;;;;;;;;;;;;;;;;;;2042107;29;20517;-89
2023/10/03 05:20:59;;;;;;;;;;;;;;;;;;2051207;28;19918;-90
2023/10/03 05:21:59;;;;;;;;;;;;;;;;;;2060246;28;19997;-90
2023/10/03 05:22:59;;;;;;;;;;;;;;;;;;2058711;28;19924;-90
2023/10/03 05:24:00;;;;;;;;;;;;;;;;;;2057973;28;20379;-91
2023/10/03 05:26:51;;;;;;;;;;;;;;;;;;2041283;28;19917;-90
2023/10/03 05:27:55;;;;;;;;;;;;;;;;;;2048953;28;20029;-92
2023/10/03 05:30:05;;;;;;;;;;;;;;;;;;2060408;28;19917;-92
2023/10/03 05:31:12;;;;;;;;;;;;;;;;;;2065702;28;19918;-93
2023/10/03 05:32:14;;;;;;;;;;;;;;;;;;2065795;28;19980;-92
2023/10/03 05:33:16;;;;;;;;;;;;;;;;;;2065876;28;19976;-91
2023/10/03 05:34:20;;;;;;;;;;;;;;;;;;2065490;28;20024;-91
2023/10/03 05:35:21;;;;;;;;;;;;;;;;;;2056872;28;19919;-92
2023/10/03 05:36:27;;;;;;;;;;;;;;;;;;2048387;28;20000;-92
2023/10/03 05:37:28;;;;;;;;;;;;;;;;;;2049711;28;19910;-91
2023/10/03 05:38:28;;;;;;;;;;;;;;;;;;2057016;28;20336;-93
2023/10/03 05:39:31;;;;;;;;;;;;;;;;;;2057036;28;19909;-91
2023/10/03 05:40:32;;;;;;;;;;;;;;;;;;2054789;28;19917;-91
2023/10/03 05:41:32;;;;;;;;;;;;;;;;;;2057053;28;20511;-92
2023/10/03 05:42:54;;;;;;;;;;;;;;;;;;2065466;28;19919;-93
2023/10/03 05:43:56;;;;;;;;;;;;;;;;;;2065268;28;19924;-92
2023/10/03 05:49:39;;;;;;;;;;;;;;;;;;2054087;28;20420;-92
2023/10/03 05:50:57;;;;;;;;;;;;;;;;;;2065339;28;19913;-92
2023/10/03 05:51:58;;;;;;;;;;;;;;;;;;2054631;28;19918;-92
2023/10/03 05:54:40;;;;;;;;;;;;;;;;;;2052218;28;19922;-92
2023/10/03 05:58:18;;;;;;;;;;;;;;;;;;2063050;28;19922;-91
2023/10/03 05:59:20;;;;;;;;;;;;;;;;;;2065484;28;19972;-91
2023/10/03 06:00:23;;;;;;;;;;;;;;;;;;2065828;28;20021;-91
2023/10/03 06:01:23;;;;;;;;;;;;;;;;;;2056785;28;19926;-91
2023/10/03 06:02:24;;;;;;;;;;;;;;;;;;2048701;28;20370;-90
2023/10/03 06:03:32;;;;;;;;;;;;;;;;;;2056669;28;20456;-91
2023/10/03 06:06:05;;;;;;;;;;;;;;;;;;2054200;28;19910;-91
2023/10/03 06:07:06;;;;;;;;;;;;;;;;;;2049474;28;20410;-91
2023/10/03 06:08:06;;;;;;;;;;;;;;;;;;2048551;29;19922;-91
2023/10/03 06:09:28;;;;;;;;;;;;;;;;;;1363293;29;10000816;-90
2023/10/03 06:10:29;;;;;;;;;;;;;;;;;;2038788;29;20370;-92
2023/10/03 06:11:35;;;;;;;;;;;;;;;;;;2047878;29;19910;-91
2023/10/03 06:12:41;;;;;;;;;;;;;;;;;;2048710;29;19910;-91
2023/10/03 06:13:44;;;;;;;;;;;;;;;;;;2041248;29;19919;-92
2023/10/03 06:15:05;;;;;;;;;;;;;;;;;;2040564;29;19918;-92
2023/10/03 06:16:06;;;;;;;;;;;;;;;;;;2043394;29;20361;-92
2023/10/03 06:17:40;;;;;;;;;;;;;;;;;;2040455;29;19918;-92
2023/10/03 06:32:21;;;;;;;;;;;;;;;;;;2065102;28;20312;-91
2023/10/03 06:33:44;;;;;;;;;;;;;;;;;;2046422;28;19922;-91
2023/10/03 06:36:30;;;;;;;;;;;;;;;;;;2052621;28;19953;-91
2023/10/03 06:51:13;;;;;;;;;;;;;;;;;;2056483;28;20020;-92
2023/10/03 06:52:14;;;;;;;;;;;;;;;;;;2061098;28;19917;-92
2023/10/03 06:53:16;;;;;;;;;;;;;;;;;;2056255;28;20370;-93
2023/10/03 06:54:16;;;;;;;;;;;;;;;;;;2056037;28;19922;-92
2023/10/03 06:55:17;;;;;;;;;;;;;;;;;;2056257;28;19910;-92
2023/10/03 06:56:17;;;;;;;;;;;;;;;;;;2056255;28;19910;-92
2023/10/03 06:57:17;;;;;;;;;;;;;;;;;;2048075;28;19917;-92
2023/10/03 06:58:17;;;;;;;;;;;;;;;;;;2056053;28;19910;-92
2023/10/03 06:59:18;;;;;;;;;;;;;;;;;;2055935;28;19916;-92
2023/10/03 07:00:21;;;;;;;;;;;;;;;;;;2048115;28;19967;-90
2023/10/03 07:01:22;;;;;;;;;;;;;;;;;;2048190;28;19910;-92
2023/10/03 07:02:22;;;;;;;;;;;;;;;;;;2048173;28;19910;-92
2023/10/03 07:03:23;;;;;;;;;;;;;;;;;;2048035;28;20385;-91